createdAt,value
2017-11-13T00:01:17.558Z,13.68
2017-11-13T00:03:45.020Z,13.40
2017-11-13T00:06:12.465Z,13.25
2017-11-13T00:08:39.905Z,13.93
2017-11-13T00:11:07.346Z,12.85
2017-11-13T00:13:34.767Z,14.52
2017-11-13T00:16:02.215Z,13.30
2017-11-13T00:18:29.646Z,13.10
2017-11-13T00:20:57.062Z,13.75
2017-11-13T00:23:24.510Z,13.77
2017-11-13T00:25:51.930Z,13.38
2017-11-13T00:28:19.349Z,13.13
2017-11-13T00:30:46.794Z,11.80
2017-11-13T00:33:14.213Z,13.35
2017-11-13T00:35:41.642Z,12.25
2017-11-13T00:38:09.081Z,12.13
2017-11-13T00:40:36.509Z,10.98
2017-11-13T00:43:03.960Z,11.60
2017-11-13T00:45:31.397Z,13.00
2017-11-13T00:47:58.829Z,13.55
2017-11-13T00:50:26.253Z,12.98
2017-11-13T00:52:53.688Z,12.52
2017-11-13T00:55:21.158Z,13.05
2017-11-13T00:57:48.617Z,13.35
2017-11-13T01:00:16.029Z,12.88
2017-11-13T01:02:43.482Z,13.35
2017-11-13T01:05:10.897Z,14.50
2017-11-13T01:07:38.366Z,13.48
2017-11-13T01:10:05.807Z,12.40
2017-11-13T01:12:33.249Z,13.20
2017-11-13T01:15:00.676Z,12.95
2017-11-13T01:17:28.123Z,12.52
2017-11-13T01:19:55.557Z,12.60
2017-11-13T01:22:22.985Z,12.27
2017-11-13T01:24:50.445Z,13.52
2017-11-13T01:27:17.886Z,11.98
2017-11-13T01:29:45.310Z,12.48
2017-11-13T01:32:12.756Z,12.10
2017-11-13T01:34:40.172Z,14.20
2017-11-13T01:37:07.598Z,12.13
2017-11-13T01:39:35.051Z,12.80
2017-11-13T01:42:02.472Z,11.43
2017-11-13T01:44:29.902Z,12.20
2017-11-13T01:46:57.342Z,12.40
2017-11-13T01:49:24.762Z,12.32
2017-11-13T01:51:52.188Z,13.13
2017-11-13T01:54:19.629Z,11.68
2017-11-13T01:56:47.057Z,12.57
2017-11-13T01:59:14.478Z,12.23
2017-11-13T02:01:41.925Z,13.85
2017-11-13T02:04:09.357Z,12.68
2017-11-13T02:06:36.782Z,11.88
2017-11-13T02:09:04.221Z,13.25
2017-11-13T02:11:31.646Z,12.52
2017-11-13T02:13:59.078Z,12.35
2017-11-13T02:16:26.517Z,12.80
2017-11-13T02:18:53.942Z,13.65
2017-11-13T02:21:21.363Z,14.75
2017-11-13T02:23:48.838Z,13.00
2017-11-13T02:26:16.261Z,13.55
2017-11-13T02:28:43.710Z,13.55
2017-11-13T02:31:11.149Z,14.10
2017-11-13T02:33:38.573Z,13.52
2017-11-13T02:36:05.994Z,13.73
2017-11-13T02:38:33.429Z,13.00
2017-11-13T02:41:00.854Z,13.95
2017-11-13T02:43:28.281Z,13.48
2017-11-13T02:45:55.730Z,13.07
2017-11-13T02:48:23.152Z,12.90
2017-11-13T02:50:50.606Z,13.48
2017-11-13T02:53:18.047Z,13.98
2017-11-13T02:55:45.473Z,13.38
2017-11-13T02:58:12.925Z,11.93
2017-11-13T03:00:40.354Z,13.45
2017-11-13T03:03:07.794Z,12.35
2017-11-13T03:05:35.218Z,12.70
2017-11-13T03:08:02.654Z,13.85
2017-11-13T03:10:30.090Z,12.85
2017-11-13T03:12:57.513Z,12.98
2017-11-13T03:15:24.959Z,12.30
2017-11-13T03:17:52.381Z,12.15
2017-11-13T03:20:19.766Z,12.05
2017-11-13T03:22:47.303Z,13.40
2017-11-13T03:25:14.720Z,13.00
2017-11-13T03:27:42.141Z,12.65
2017-11-13T03:30:09.597Z,11.52
2017-11-13T03:32:37.020Z,13.85
2017-11-13T03:35:04.452Z,12.73
2017-11-13T03:37:31.889Z,12.60
2017-11-13T03:39:59.313Z,12.27
2017-11-13T03:42:26.737Z,13.45
2017-11-13T03:44:54.178Z,13.25
2017-11-13T03:47:21.606Z,13.75
2017-11-13T03:49:49.029Z,15.13
2017-11-13T03:52:16.469Z,14.70
2017-11-13T03:54:43.898Z,15.30
2017-11-13T03:57:11.325Z,15.68
2017-11-13T03:59:38.766Z,15.63
2017-11-13T04:02:06.270Z,14.30
2017-11-13T04:04:33.685Z,15.23
2017-11-13T04:07:01.130Z,14.38
2017-11-13T04:09:28.545Z,14.85
2017-11-13T04:11:55.990Z,15.35
2017-11-13T04:14:23.413Z,14.13
2017-11-13T04:16:50.833Z,14.60
2017-11-13T04:19:18.277Z,14.27
2017-11-13T04:21:45.705Z,14.98
2017-11-13T04:24:13.125Z,15.15
2017-11-13T04:26:40.579Z,14.85
2017-11-13T04:29:07.998Z,16.50
2017-11-13T04:31:35.422Z,14.50
2017-11-13T04:34:02.862Z,14.77
2017-11-13T04:36:30.281Z,15.38
2017-11-13T04:38:57.706Z,16.73
2017-11-13T04:41:25.150Z,17.60
2017-11-13T04:43:52.577Z,17.27
2017-11-13T04:46:19.990Z,14.73
2017-11-13T04:48:47.442Z,16.77
2017-11-13T04:51:14.861Z,16.83
2017-11-13T04:53:42.294Z,17.02
2017-11-13T04:56:09.730Z,18.00
2017-11-13T04:58:37.168Z,16.48
2017-11-13T05:01:04.599Z,19.00
2017-11-13T05:03:32.040Z,17.50
2017-11-13T05:05:59.457Z,18.05
2017-11-13T05:08:26.881Z,17.87
2017-11-13T05:10:54.329Z,16.55
2017-11-13T05:13:21.753Z,20.08
2017-11-13T05:15:49.169Z,18.00
2017-11-13T05:18:16.613Z,17.80
2017-11-13T05:20:44.042Z,17.75
2017-11-13T05:23:11.466Z,18.40
2017-11-13T05:25:38.913Z,19.00
2017-11-13T05:28:06.343Z,17.37
2017-11-13T05:30:33.725Z,18.12
2017-11-13T05:33:01.197Z,18.30
2017-11-13T05:35:28.621Z,18.05
2017-11-13T05:37:56.048Z,19.17
2017-11-13T05:40:23.491Z,19.27
2017-11-13T05:42:50.926Z,19.40
2017-11-13T05:45:18.350Z,20.52
2017-11-13T05:47:45.789Z,20.50
2017-11-13T05:50:13.211Z,22.60
2017-11-13T05:52:40.639Z,20.48
2017-11-13T05:55:08.079Z,20.65
2017-11-13T05:57:35.511Z,20.52
2017-11-13T06:00:02.943Z,20.52
2017-11-13T06:02:30.381Z,20.88
2017-11-13T06:04:57.806Z,20.35
2017-11-13T06:07:25.221Z,20.15
2017-11-13T06:09:52.675Z,20.40
2017-11-13T06:12:20.098Z,21.65
2017-11-13T06:14:47.525Z,21.67
2017-11-13T06:17:14.967Z,21.62
2017-11-13T06:19:42.402Z,22.15
2017-11-13T06:22:09.834Z,21.62
2017-11-13T06:24:37.277Z,21.62
2017-11-13T06:27:04.699Z,21.83
2017-11-13T06:29:32.122Z,22.25
2017-11-13T06:31:59.553Z,22.75
2017-11-13T06:34:26.983Z,21.30
2017-11-13T06:36:54.412Z,21.83
2017-11-13T06:39:21.854Z,23.77
2017-11-13T06:41:49.281Z,22.05
2017-11-13T06:44:16.705Z,22.08
2017-11-13T06:46:44.165Z,22.60
2017-11-13T06:49:11.594Z,22.42
2017-11-13T06:51:39.019Z,21.17
2017-11-13T06:54:06.461Z,21.25
2017-11-13T06:56:33.886Z,22.13
2017-11-13T06:59:01.535Z,23.40
2017-11-13T07:01:28.973Z,23.77
2017-11-13T07:03:56.397Z,22.42
2017-11-13T07:06:23.813Z,20.88
2017-11-13T07:08:51.259Z,23.55
2017-11-13T07:11:18.694Z,23.17
2017-11-13T07:13:46.127Z,23.87
2017-11-13T07:16:13.566Z,21.83
2017-11-13T07:18:40.986Z,22.62
2017-11-13T07:21:08.419Z,22.87
2017-11-13T07:23:35.862Z,21.27
2017-11-13T07:26:03.286Z,22.40
2017-11-13T07:28:30.724Z,23.02
2017-11-13T07:30:58.173Z,23.60
2017-11-13T07:33:25.659Z,23.05
2017-11-13T07:35:53.080Z,20.37
2017-11-13T07:38:20.525Z,21.98
2017-11-13T07:40:47.955Z,20.80
2017-11-13T07:43:15.426Z,22.65
2017-11-13T07:45:42.874Z,21.48
2017-11-13T07:48:10.301Z,21.65
2017-11-13T07:50:37.773Z,21.20
2017-11-13T07:53:05.201Z,21.50
2017-11-13T07:55:32.629Z,21.42
2017-11-13T07:58:00.073Z,22.33
2017-11-13T08:00:27.498Z,21.27
2017-11-13T08:02:54.926Z,21.02
2017-11-13T08:05:22.366Z,20.70
2017-11-13T08:07:49.802Z,20.83
2017-11-13T08:10:17.229Z,19.95
2017-11-13T08:12:44.688Z,21.37
2017-11-13T08:15:12.118Z,17.77
2017-11-13T08:17:39.548Z,18.45
2017-11-13T08:20:07.010Z,17.60
2017-11-13T08:22:34.450Z,14.30
2017-11-13T08:25:01.880Z,15.82
2017-11-13T08:27:29.314Z,16.58
2017-11-13T08:29:56.770Z,16.45
2017-11-13T08:32:24.198Z,16.55
2017-11-13T08:34:51.658Z,15.52
2017-11-13T08:37:19.098Z,15.50
2017-11-13T08:39:46.530Z,13.75
2017-11-13T08:42:13.974Z,13.20
2017-11-13T08:44:41.397Z,14.10
2017-11-13T08:47:08.822Z,14.13
2017-11-13T08:49:36.356Z,14.00
2017-11-13T08:52:03.787Z,14.93
2017-11-13T08:54:31.213Z,15.60
2017-11-13T08:56:58.653Z,16.80
2017-11-13T08:59:26.082Z,18.20
2017-11-13T09:01:53.514Z,18.62
2017-11-13T09:04:20.963Z,19.83
2017-11-13T09:06:48.389Z,20.33
2017-11-13T09:09:15.838Z,19.27
2017-11-13T09:11:43.270Z,20.15
2017-11-13T09:14:10.693Z,20.42
2017-11-13T09:16:38.136Z,21.92
2017-11-13T09:19:05.565Z,22.62
2017-11-13T09:21:33.003Z,20.67
2017-11-13T09:24:00.482Z,21.27
2017-11-13T09:26:27.911Z,22.08
2017-11-13T09:28:55.338Z,21.15
2017-11-13T09:31:22.782Z,21.30
2017-11-13T09:33:50.220Z,20.40
2017-11-13T09:36:17.642Z,19.50
2017-11-13T09:38:45.083Z,18.80
2017-11-13T09:41:12.505Z,18.95
2017-11-13T09:43:39.929Z,15.20
2017-11-13T09:46:07.381Z,17.55
2017-11-13T09:48:34.811Z,17.75
2017-11-13T09:51:02.255Z,20.42
2017-11-13T09:53:29.707Z,20.90
2017-11-13T09:55:57.150Z,20.58
2017-11-13T09:58:24.578Z,19.02
2017-11-13T10:00:52.042Z,20.40
2017-11-13T10:03:19.465Z,20.05
2017-11-13T10:05:46.907Z,19.98
2017-11-13T10:08:14.350Z,19.55
2017-11-13T10:10:41.774Z,20.73
2017-11-13T10:13:09.202Z,21.40
2017-11-13T10:15:36.731Z,20.65
2017-11-13T10:18:04.161Z,18.55
2017-11-13T10:20:31.590Z,20.08
2017-11-13T10:22:59.041Z,17.83
2017-11-13T10:25:26.484Z,16.85
2017-11-13T10:27:53.909Z,16.62
2017-11-13T10:30:21.359Z,16.30
2017-11-13T10:32:48.788Z,15.95
2017-11-13T10:35:16.215Z,17.10
2017-11-13T10:37:43.666Z,15.45
2017-11-13T10:40:11.108Z,17.55
2017-11-13T10:42:38.559Z,17.15
2017-11-13T10:45:06.055Z,17.98
2017-11-13T10:47:33.485Z,15.82
2017-11-13T10:50:00.934Z,16.33
2017-11-13T10:52:28.358Z,15.38
2017-11-13T10:54:55.820Z,16.50
2017-11-13T10:57:23.268Z,19.33
2017-11-13T10:59:50.697Z,19.30
2017-11-13T11:02:18.129Z,16.90
2017-11-13T11:04:45.590Z,16.83
2017-11-13T11:07:13.305Z,18.73
2017-11-13T11:09:40.746Z,17.70
2017-11-13T11:12:09.986Z,17.90
2017-11-13T11:14:42.986Z,16.80
2017-11-13T11:17:16.042Z,18.12
2017-11-13T11:19:46.395Z,20.33
2017-11-13T11:22:13.827Z,20.27
2017-11-13T11:24:41.282Z,20.83
2017-11-13T11:27:09.214Z,17.37
2017-11-13T11:29:40.494Z,18.45
2017-11-13T11:32:27.711Z,21.52
2017-11-13T11:34:58.694Z,22.75
2017-11-13T11:37:41.017Z,20.80
2017-11-13T11:40:08.445Z,22.13
2017-11-13T11:42:35.878Z,21.23
2017-11-13T11:45:18.190Z,22.98
2017-11-13T11:48:01.299Z,21.50
2017-11-13T11:50:28.773Z,21.20
2017-11-13T11:52:56.181Z,22.70
2017-11-13T11:55:25.565Z,23.10
2017-11-13T11:57:53.020Z,23.45
2017-11-13T12:00:20.935Z,22.37
2017-11-13T12:02:48.361Z,21.77
2017-11-13T12:05:15.815Z,20.48
2017-11-13T12:07:43.253Z,22.00
2017-11-13T12:10:10.687Z,23.92
2017-11-13T12:12:38.218Z,21.95
2017-11-13T12:15:05.647Z,19.50
2017-11-13T12:17:33.107Z,20.55
2017-11-13T12:20:00.566Z,22.58
2017-11-13T12:22:27.992Z,19.35
2017-11-13T12:24:55.431Z,19.40
2017-11-13T12:27:23.748Z,18.65
2017-11-13T12:29:51.175Z,21.05
2017-11-13T12:32:18.608Z,18.12
2017-11-13T12:34:46.055Z,17.75
2017-11-13T12:37:13.490Z,18.95
2017-11-13T12:39:40.926Z,17.10
2017-11-13T12:42:08.379Z,17.12
2017-11-13T12:44:35.806Z,20.35
2017-11-13T12:47:03.243Z,19.85
2017-11-13T12:49:30.697Z,20.60
2017-11-13T12:51:58.136Z,20.17
2017-11-13T12:54:25.572Z,21.20
2017-11-13T12:56:53.050Z,17.55
2017-11-13T12:59:20.491Z,15.70
2017-11-13T13:01:47.921Z,15.30
2017-11-13T13:04:15.383Z,14.25
2017-11-13T13:06:42.813Z,14.27
2017-11-13T13:09:10.252Z,12.82
2017-11-13T13:11:37.711Z,13.25
2017-11-13T13:14:05.143Z,13.98
2017-11-13T13:16:32.577Z,12.37
2017-11-13T13:19:00.036Z,11.43
2017-11-13T13:21:27.466Z,11.60
2017-11-13T13:23:54.903Z,12.25
2017-11-13T13:26:22.350Z,9.90
2017-11-13T13:28:49.784Z,9.02
2017-11-13T13:31:17.213Z,13.90
2017-11-13T13:33:44.678Z,8.88
2017-11-13T13:36:12.106Z,8.23
2017-11-13T13:38:39.543Z,10.00
2017-11-13T13:41:06.999Z,10.55
2017-11-13T13:43:34.430Z,12.82
2017-11-13T13:46:01.862Z,13.48
2017-11-13T13:48:29.315Z,15.80
2017-11-13T13:50:56.752Z,15.85
2017-11-13T13:53:24.194Z,15.70
2017-11-13T13:55:51.649Z,14.30
2017-11-13T13:58:19.090Z,14.00
2017-11-13T14:00:46.517Z,10.95
2017-11-13T14:03:13.962Z,9.90
2017-11-13T14:05:41.389Z,11.30
2017-11-13T14:08:08.836Z,12.70
2017-11-13T14:10:36.290Z,11.32
2017-11-13T14:13:03.717Z,10.15
2017-11-13T14:15:31.156Z,10.10
2017-11-13T14:17:58.603Z,10.18
2017-11-13T14:20:26.034Z,10.35
2017-11-13T14:22:53.467Z,12.75
2017-11-13T14:25:20.912Z,11.10
2017-11-13T14:27:48.345Z,16.90
2017-11-13T14:30:15.778Z,11.50
2017-11-13T14:32:43.240Z,12.20
2017-11-13T14:35:10.666Z,13.60
2017-11-13T14:37:38.109Z,12.50
2017-11-13T14:40:05.558Z,13.93
2017-11-13T14:42:32.990Z,14.87
2017-11-13T14:45:00.426Z,13.88
2017-11-13T14:47:27.874Z,14.43
2017-11-13T14:49:55.307Z,14.80
2017-11-13T14:52:22.737Z,13.45
2017-11-13T14:54:50.185Z,13.93
2017-11-13T14:57:17.619Z,11.20
2017-11-13T14:59:45.054Z,11.38
2017-11-13T15:02:12.510Z,10.85
2017-11-13T15:04:39.946Z,11.27
2017-11-13T15:07:07.370Z,11.15
2017-11-13T15:09:34.819Z,11.88
2017-11-13T15:12:02.245Z,10.80
2017-11-13T15:14:29.677Z,11.02
2017-11-13T15:16:57.121Z,9.95
2017-11-13T15:19:24.546Z,9.93
2017-11-13T15:21:51.974Z,11.43
2017-11-13T15:24:19.417Z,11.30
2017-11-13T15:26:46.846Z,12.02
2017-11-13T15:29:14.279Z,13.15
2017-11-13T15:31:41.723Z,13.32
2017-11-13T15:34:09.166Z,14.90
2017-11-13T15:36:36.598Z,13.60
2017-11-13T15:39:04.072Z,14.13
2017-11-13T15:41:31.506Z,13.10
2017-11-13T15:43:58.951Z,13.25
2017-11-13T15:46:26.333Z,13.45
2017-11-13T15:48:53.802Z,13.60
2017-11-13T15:51:21.246Z,13.70
2017-11-13T15:53:48.692Z,15.80
2017-11-13T15:56:16.121Z,13.52
2017-11-13T15:58:43.545Z,13.80
2017-11-13T16:01:10.990Z,13.50
2017-11-13T16:03:38.439Z,14.75
2017-11-13T16:06:05.866Z,13.65
2017-11-13T16:08:33.318Z,15.70
2017-11-13T16:11:00.744Z,14.75
2017-11-13T16:13:28.173Z,16.50
2017-11-13T16:15:55.617Z,15.60
2017-11-13T16:18:23.045Z,14.40
2017-11-13T16:20:50.479Z,14.10
2017-11-13T16:23:17.921Z,16.67
2017-11-13T16:25:45.353Z,17.02
2017-11-13T16:28:12.792Z,16.33
2017-11-13T16:30:40.230Z,17.30
2017-11-13T16:33:07.663Z,18.02
2017-11-13T16:35:35.099Z,17.40
2017-11-13T16:38:02.546Z,15.95
2017-11-13T16:40:29.969Z,17.67
2017-11-13T16:42:57.406Z,17.20
2017-11-13T16:45:24.858Z,18.08
2017-11-13T16:47:52.278Z,17.40
2017-11-13T16:50:19.709Z,18.87
2017-11-13T16:52:47.159Z,17.80
2017-11-13T16:55:14.580Z,17.42
2017-11-13T16:57:42.010Z,19.42
2017-11-13T17:00:09.449Z,18.70
2017-11-13T17:02:36.883Z,18.83
2017-11-13T17:05:04.310Z,18.83
2017-11-13T17:07:31.759Z,21.40
2017-11-13T17:09:59.182Z,20.45
2017-11-13T17:12:26.614Z,19.23
2017-11-13T17:14:54.067Z,20.20
2017-11-13T17:17:21.512Z,20.10
2017-11-13T17:19:48.943Z,20.70
2017-11-13T17:22:16.369Z,18.52
2017-11-13T17:24:43.807Z,18.45
2017-11-13T17:27:11.254Z,18.55
2017-11-13T17:29:38.704Z,19.75
2017-11-13T17:32:06.154Z,19.20
2017-11-13T17:34:33.602Z,18.35
2017-11-13T17:37:01.066Z,19.75
2017-11-13T17:39:28.510Z,19.65
2017-11-13T17:41:55.974Z,20.73
2017-11-13T17:44:23.419Z,20.88
2017-11-13T17:46:50.845Z,20.10
2017-11-13T17:49:18.281Z,20.58
2017-11-13T17:51:45.735Z,20.65
2017-11-13T17:54:13.179Z,20.58
2017-11-13T17:56:41.251Z,20.25
2017-11-13T17:59:08.703Z,20.25
2017-11-13T18:01:36.152Z,20.75
2017-11-13T18:04:03.590Z,22.30
2017-11-13T18:06:31.018Z,19.33
2017-11-13T18:08:58.552Z,21.98
2017-11-13T18:11:26.031Z,20.90
2017-11-13T18:13:53.459Z,22.08
2017-11-13T18:16:20.905Z,20.60
2017-11-13T18:18:48.358Z,21.85
2017-11-13T18:21:15.802Z,21.98
2017-11-13T18:23:43.418Z,19.65
2017-11-13T18:26:10.865Z,20.85
2017-11-13T18:28:38.305Z,21.45
2017-11-13T18:31:05.798Z,20.42
2017-11-13T18:33:33.243Z,23.20
2017-11-13T18:36:00.700Z,21.50
2017-11-13T18:38:28.125Z,21.98
2017-11-13T18:40:55.577Z,20.98
2017-11-13T18:43:23.030Z,22.95
2017-11-13T18:45:50.462Z,22.10
2017-11-13T18:48:17.898Z,20.33
2017-11-13T18:50:45.380Z,21.87
2017-11-13T18:53:12.846Z,22.95
2017-11-13T18:55:40.281Z,20.77
2017-11-13T18:58:07.729Z,23.08
2017-11-13T19:00:35.216Z,23.48
2017-11-13T19:03:02.747Z,21.67
2017-11-13T19:05:30.241Z,21.95
2017-11-13T19:07:57.737Z,24.42
2017-11-13T19:10:25.203Z,22.98
2017-11-13T19:12:52.684Z,22.73
2017-11-13T19:15:20.242Z,24.42
2017-11-13T19:17:47.799Z,23.45
2017-11-13T19:20:15.384Z,24.67
2017-11-13T19:22:42.980Z,25.98
2017-11-13T19:25:10.532Z,25.83
2017-11-13T19:27:38.448Z,23.83
2017-11-13T19:30:06.308Z,24.55
2017-11-13T19:32:33.842Z,27.35
2017-11-13T19:35:01.807Z,27.67
2017-11-13T19:37:30.449Z,24.75
2017-11-13T19:39:58.885Z,25.52
2017-11-13T19:42:27.231Z,26.35
2017-11-13T19:44:55.619Z,27.35
2017-11-13T19:47:24.104Z,26.25
2017-11-13T19:49:52.532Z,26.67
2017-11-13T19:52:21.015Z,23.95
2017-11-13T19:54:49.412Z,27.02
2017-11-13T19:57:18.192Z,25.15
2017-11-13T19:59:47.488Z,24.20
2017-11-13T20:02:15.871Z,24.08
2017-11-13T20:04:44.330Z,26.40
2017-11-13T20:07:12.755Z,26.25
2017-11-13T20:09:41.192Z,24.90
2017-11-13T20:12:09.662Z,26.25
2017-11-13T20:14:38.099Z,27.65
2017-11-13T20:17:06.430Z,25.55
2017-11-13T20:19:34.925Z,26.15
2017-11-13T20:22:04.355Z,25.83
2017-11-13T20:24:32.788Z,26.75
2017-11-13T20:27:01.260Z,24.65
2017-11-13T20:29:29.769Z,25.37
2017-11-13T20:31:58.203Z,26.60
2017-11-13T20:34:26.825Z,28.25
2017-11-13T20:36:55.228Z,27.37
2017-11-13T20:39:23.608Z,28.08
2017-11-13T20:41:52.154Z,26.60
2017-11-13T20:44:20.555Z,26.40
2017-11-13T20:46:48.963Z,27.80
2017-11-13T20:49:19.854Z,26.15
2017-11-13T20:51:48.412Z,27.42
2017-11-13T20:54:17.793Z,27.50
2017-11-13T20:56:46.399Z,29.17
2017-11-13T20:59:15.057Z,25.83
2017-11-13T21:01:43.536Z,27.80
2017-11-13T21:04:14.009Z,27.27
2017-11-13T21:06:42.641Z,27.33
2017-11-13T21:09:10.952Z,28.33
2017-11-13T21:11:39.336Z,26.20
2017-11-13T21:14:07.379Z,27.25
2017-11-13T21:16:35.573Z,27.58
2017-11-13T21:19:03.802Z,27.45
2017-11-13T21:21:44.428Z,28.25
2017-11-13T21:24:16.565Z,29.42
2017-11-13T21:26:44.179Z,29.40
2017-11-13T21:29:11.825Z,27.65
2017-11-13T21:31:39.306Z,28.62
2017-11-13T21:34:06.757Z,28.08
2017-11-13T21:36:35.017Z,27.40
2017-11-13T21:39:02.494Z,27.30
2017-11-13T21:41:29.940Z,27.98
2017-11-13T21:43:57.390Z,27.40
2017-11-13T21:46:24.896Z,28.55
2017-11-13T21:48:55.229Z,28.40
2017-11-13T21:51:25.715Z,27.02
2017-11-13T21:53:55.593Z,25.90
2017-11-13T21:56:23.486Z,26.80
2017-11-13T21:58:50.929Z,26.17
2017-11-13T22:01:18.366Z,28.15
2017-11-13T22:03:51.810Z,29.05
2017-11-13T22:06:19.263Z,28.55
2017-11-13T22:11:28.666Z,28.20
2017-11-13T22:13:59.725Z,28.60
2017-11-13T22:16:29.741Z,29.83
2017-11-13T22:18:57.178Z,29.37
2017-11-13T22:21:24.606Z,29.87
2017-11-13T22:23:52.060Z,28.55
2017-11-13T22:26:19.489Z,28.55
2017-11-13T22:28:46.912Z,28.70
2017-11-13T22:31:14.366Z,28.60
2017-11-13T22:33:41.802Z,28.45
2017-11-13T22:36:09.232Z,29.10
2017-11-13T22:38:36.692Z,28.80
2017-11-13T22:41:04.142Z,28.05
2017-11-13T22:43:31.566Z,26.95
2017-11-13T22:45:59.013Z,27.90
2017-11-13T22:48:26.451Z,26.70
2017-11-13T22:50:53.898Z,27.30
2017-11-13T22:53:28.560Z,27.55
2017-11-13T22:55:58.721Z,27.10
2017-11-13T22:58:27.915Z,27.27
2017-11-13T23:00:57.306Z,26.20
2017-11-13T23:03:24.757Z,29.15
2017-11-13T23:05:52.188Z,25.65
2017-11-13T23:08:19.629Z,28.05
2017-11-13T23:10:47.111Z,28.23
2017-11-13T23:13:14.552Z,26.52
2017-11-13T23:15:42.006Z,27.95
2017-11-13T23:18:09.489Z,28.40
2017-11-13T23:20:36.944Z,25.85
2017-11-13T23:23:04.376Z,26.58
2017-11-13T23:25:31.822Z,25.10
2017-11-13T23:27:59.256Z,27.10
2017-11-13T23:30:26.682Z,28.80
2017-11-13T23:32:54.130Z,25.80
2017-11-13T23:35:21.556Z,27.83
2017-11-13T23:37:48.981Z,27.95
2017-11-13T23:40:16.416Z,28.02
2017-11-13T23:42:43.862Z,27.58
2017-11-13T23:45:11.302Z,29.63
2017-11-13T23:47:38.741Z,28.25
2017-11-13T23:50:06.182Z,27.92
2017-11-13T23:52:33.625Z,28.55
2017-11-13T23:55:01.057Z,29.35
2017-11-13T23:57:28.490Z,26.33
2017-11-13T23:59:55.930Z,29.92
